Waterford, CT (06385)

9:35 AM EST on December 22, 2014 (GMT -0500)
Ridgewood by the Sea | Change Station
CLOSE
Current Station
Personal Weather Station
Location: Waterford, CT
Elevation: 30 ft
Nearby Weather Stations

Elev 30 ft 41.31 °N, 72.10 °W | Updated 1 minute ago

Overcast
Overcast
39.4 °F
Feels Like 39 °F
N
0.0
Wind Variable Wind from NE
Gusts 3.0 mph

Today
High -- | Low -- °F
--% Chance of Precip.
Yesterday
High -- | Low -- °F
Precip. -- in
7:11 AM 4:22 PM
New Moon, 0% visible
Pressure 30.34 in
Visibility 6.0 miles
Clouds Overcast 4600 ft
Windchill 39 °F
Dew Point 36 °F
Humidity 87%
Rainfall 0.00 in
Snow Depth Not available.
UV 0 out of 12
Pollen .10 out of 12
Air Quality Not available.
Flu Activity Not available.
METAR KGON 221356Z 05008KT 6SM BR OVC046 04/02 A3034 RMK AO2 SLP274 T00390017

More Conditions Fewer Conditions

Pressure 30.34 in
Visibility 6.0 miles
Clouds Overcast 4600 ft
Windchill 39 °F
Dew Point 36 °F
Humidity 87%
Rainfall 0.00 in
Snow Depth Not available.
UV 0 out of 12
Pollen .10 out of 12
Air Quality Not available.
Flu Activity Not available.
METAR KGON 221356Z 05008KT 6SM BR OVC046 04/02 A3034 RMK AO2 SLP274 T00390017

More Conditions Fewer Conditions

10-Day Weather Forecast

Almanac

Astronomy

Dec. 22, 2014 Rise Set
Actual Time
Civil Twilight
Nautical Twilight
Astronomical Twilight
Moon
Length of Visible Light
Length of Day
Tomorrow will be .
, % of the Moon is Illuminated

Today's Extremes

State Highs State Lows

Community

WunderPhotos

Upload Photos

1,779,608 photos uploaded!

WunderBlogs® & News

Nearby

Air Quality

  Air Quality AQ Index Pollutant
Not available.

Snow Depth

Station Depth Elevation

Earthquake Activity

City Distance Mag. Time & Date
Minimum magnitude displayed is 2.5.

Coastal Water Temperatures

Place Temperature

Nearby Weather Stations